Flight Track Log - Related Links

Times and Time Zones

All times are in EDT time to prevent confusion due to time zone crossing. See the N45DJ flight status page for this flight to view local times or setup timezone preferences in your user account.

Time Position Orientation Groundspeed Altitude Reporting Facility
EDT Latitude Longitude Course Direction KTS km/h feet Rate Location/Type
Thu 20:04:32 30.6103 -88.0533 64° Northeast 123 229 1.300  Level Houston Center
Thu 20:05:34 30.6256 -88.0167 64° Northeast 195 360 3.100 1.839 Climbing Houston Center
Thu 20:06:36 30.6642 -87.9875 33° Northeast 175 323 5.100 1.935 Climbing Houston Center
Thu 20:07:38 30.7064 -87.9625 27° Northeast 174 322 7.100 1.887 Climbing Houston Center
Thu 20:08:40 30.7525 -87.9444 19° North 174 322 9.000 1.984 Climbing Houston Center
Thu 20:09:42 30.8078 -87.9222 19° North 174 322 11.200 1.887 Climbing Houston Center
Thu 20:10:44 30.8567 -87.9042 18° North 181 335 12.900 1.500 Climbing Houston Center
Thu 20:11:46 30.9083 -87.8856 17° North 189 349 14.300 1.355 Climbing Houston Center
Thu 20:12:48 30.9622 -87.8694 14° North 197 365 15.700 1.113 Climbing Houston Center
Thu 20:13:50 31.0225 -87.8519 14° North 217 402 16.600 919 Climbing Houston Center
Thu 20:14:52 31.1028 -87.8369 North 240 444 17.600 968 Climbing Houston Center
Thu 20:15:54 31.1728 -87.8236 North 252 467 18.600 1.161 Climbing Houston Center
Thu 20:16:56 31.2289 -87.7889 28° Northeast 238 441 20.000 1.306 Climbing Houston Center
Thu 20:17:58 31.2800 -87.7464 35° Northeast 228 422 21.300 1.306 Climbing Houston Center
Thu 20:19:00 31.3292 -87.7058 35° Northeast 224 415 22.700 1.306 Climbing Houston Center
Thu 20:20:02 31.3897 -87.6567 35° Northeast 219 406 24.000 1.113 Climbing Houston Center
Thu 20:21:04 31.4428 -87.6142 34° Northeast 230 426 25.000 968 Climbing Houston Center
Thu 20:22:06 31.4969 -87.5694 35° Northeast 235 435 26.000 968 Climbing Houston Center
Thu 20:23:08 31.5533 -87.5239 35° Northeast 243 451 27.000 484 Climbing Houston Center
Thu 20:24:10 31.6158 -87.4728 35° Northeast 268 496 27.000  Level Houston Center
Thu 20:25:12 31.6853 -87.4161 35° Northeast 299 554 27.000  Level Houston Center
Thu 20:26:03 31.7625 -87.3583 32° Northeast 303 562 27.000  Level Atlanta Center
Thu 20:27:03 31.8267 -87.3019 37° Northeast 316 586 27.000  Level Atlanta Center
Thu 20:28:03 31.8992 -87.2408 36° Northeast 321 594 27.000  Level Atlanta Center
Thu 20:29:03 31.9761 -87.1778 35° Northeast 321 594 27.000  Level Atlanta Center
Thu 20:30:03 32.0528 -87.1167 34° Northeast 321 594 27.000  Level Atlanta Center
Thu 20:31:03 32.1294 -87.0531 35° Northeast 327 605 27.000  Level Atlanta Center
Thu 20:32:03 32.2039 -86.9892 36° Northeast 327 605 27.000  Level Atlanta Center
Thu 20:33:03 32.2828 -86.9256 34° Northeast 327 605 27.000  Level Atlanta Center
Thu 20:34:03 32.3678 -86.8569 34° Northeast 334 618 27.000  Level Atlanta Center
Thu 20:35:03 32.4422 -86.7928 36° Northeast 334 618 27.000  Level Atlanta Center
Thu 20:36:03 32.5253 -86.7242 35° Northeast 339 628 27.000 -400 Level Atlanta Center
Thu 20:37:03 32.5994 -86.6647 34° Northeast 339 628 26.200 -850 Descending Atlanta Center
Thu 20:38:03 32.6803 -86.5956 36° Northeast 339 628 25.300 -850 Descending Atlanta Center
Thu 20:39:03 32.7631 -86.5264 35° Northeast 344 637 24.500 -900 Descending Atlanta Center
Thu 20:40:03 32.8481 -86.4544 35° Northeast 357 661 23.500 -950 Descending Atlanta Center
Thu 20:41:03 32.9267 -86.3825 38° Northeast 354 655 22.600 -900 Descending Atlanta Center
Thu 20:42:03 33.0072 -86.3203 33° Northeast 354 655 21.700 -900 Descending Atlanta Center
Thu 20:43:03 33.0856 -86.2503 37° Northeast 354 655 20.800 -950 Descending Atlanta Center
Thu 20:44:03 33.1639 -86.1853 35° Northeast 348 644 19.800 -900 Descending Atlanta Center
Thu 20:45:03 33.2425 -86.1153 37° Northeast 348 644 19.000 -750 Descending Atlanta Center
Thu 20:46:03 33.3208 -86.0500 35° Northeast 343 636 18.300 -700 Descending Atlanta Center
Thu 20:47:03 33.3969 -85.9869 35° Northeast 337 624 17.600 -700 Descending Atlanta Center

Login

Don't have an account? Register now (free) for customized features, flight alerts, and more!